createdAt,value
2022-11-28T00:01:30.296Z,98.12
2022-11-28T00:03:33.931Z,97.98
2022-11-28T00:05:37.346Z,98.01
2022-11-28T00:07:42.240Z,98.07
2022-11-28T00:09:45.622Z,97.92
2022-11-28T00:11:50.254Z,98.05
2022-11-28T00:13:53.863Z,97.73
2022-11-28T00:15:57.716Z,98.39
2022-11-28T00:18:01.071Z,98.28
2022-11-28T00:20:05.359Z,98.08
2022-11-28T00:22:08.627Z,98.03
2022-11-28T00:24:13.341Z,98.15
2022-11-28T00:26:20.256Z,98.05
2022-11-28T00:28:23.605Z,98.07
2022-11-28T00:30:27.011Z,98.08
2022-11-28T00:32:31.706Z,98.24
2022-11-28T00:34:35.363Z,98.63
2022-11-28T00:36:38.664Z,98.09
2022-11-28T00:38:42.785Z,98.22
2022-11-28T00:40:47.616Z,98.36
2022-11-28T00:42:50.876Z,98.76
2022-11-28T00:44:54.196Z,98.65
2022-11-28T00:46:57.632Z,98.61
2022-11-28T00:49:02.437Z,98.89
2022-11-28T00:51:09.917Z,99.25
2022-11-28T00:53:13.292Z,99.29
2022-11-28T00:55:16.711Z,99.61
2022-11-28T00:57:21.566Z,99.72
2022-11-28T00:59:25.031Z,99.94
2022-11-28T01:01:30.776Z,99.90
2022-11-28T01:03:34.337Z,99.90
2022-11-28T01:05:42.085Z,99.87
2022-11-28T01:07:46.082Z,100.00
2022-11-28T01:09:49.432Z,100.00
2022-11-28T01:11:54.953Z,100.00
2022-11-28T01:14:01.737Z,100.00
2022-11-28T01:16:05.326Z,100.00
2022-11-28T01:18:09.126Z,100.00
2022-11-28T01:20:13.666Z,100.00
2022-11-28T01:22:17.284Z,100.00
2022-11-28T01:24:20.660Z,99.95
2022-11-28T01:26:26.411Z,100.00
2022-11-28T01:28:29.974Z,100.00
2022-11-28T01:30:35.147Z,100.00
2022-11-28T01:32:39.290Z,100.00
2022-11-28T01:34:43.063Z,99.83
2022-11-28T01:36:46.584Z,99.89
2022-11-28T01:38:50.705Z,99.88
2022-11-28T01:40:55.225Z,99.23
2022-11-28T01:42:58.731Z,99.68
2022-11-28T01:45:09.402Z,99.56
2022-11-28T01:47:15.872Z,99.63
2022-11-28T01:49:23.738Z,99.80
2022-11-28T01:51:27.669Z,99.68
2022-11-28T01:53:34.141Z,99.67
2022-11-28T01:55:42.098Z,99.33
2022-11-28T01:57:45.634Z,99.23
2022-11-28T01:59:57.339Z,99.08
2022-11-28T02:02:00.727Z,99.18
2022-11-28T02:04:06.277Z,99.26
2022-11-28T02:06:10.857Z,99.51
2022-11-28T02:08:14.287Z,99.19
2022-11-28T02:10:21.430Z,99.31
2022-11-28T02:12:37.420Z,99.48
2022-11-28T02:15:14.105Z,99.56
2022-11-28T02:17:26.018Z,99.42
2022-11-28T02:20:05.034Z,99.85
2022-11-28T02:22:15.554Z,99.92
2022-11-28T02:25:04.873Z,100.00
2022-11-28T02:27:38.281Z,99.60
2022-11-28T02:30:07.419Z,100.00
2022-11-28T02:32:21.053Z,99.70
2022-11-28T02:34:29.770Z,98.86
2022-11-28T02:36:40.228Z,99.41
2022-11-28T02:38:53.801Z,99.43
2022-11-28T02:41:02.437Z,99.78
2022-11-28T02:43:15.150Z,99.49
2022-11-28T02:45:25.066Z,99.33
2022-11-28T02:47:34.909Z,99.47
2022-11-28T02:49:45.897Z,99.60
2022-11-28T02:51:55.581Z,99.42
2022-11-28T02:54:01.204Z,99.44
2022-11-28T02:56:05.946Z,99.56
2022-11-28T02:58:11.287Z,99.50
2022-11-28T03:00:28.312Z,99.86
2022-11-28T03:02:35.559Z,99.68
2022-11-28T03:04:49.124Z,99.81
2022-11-28T03:07:04.767Z,99.74
2022-11-28T03:09:27.945Z,100.00
2022-11-28T03:11:47.405Z,99.78
2022-11-28T03:13:55.762Z,99.96
2022-11-28T03:16:07.350Z,99.88
2022-11-28T03:18:19.302Z,100.00
2022-11-28T03:20:29.606Z,100.00
2022-11-28T03:22:41.217Z,99.74
2022-11-28T03:24:47.805Z,99.70
2022-11-28T03:26:57.424Z,99.60
2022-11-28T03:29:07.236Z,99.62
2022-11-28T03:31:14.950Z,99.27
2022-11-28T03:33:22.232Z,99.70
2022-11-28T03:35:30.151Z,99.42
2022-11-28T03:37:39.049Z,99.58
2022-11-28T03:39:46.760Z,99.53
2022-11-28T03:41:55.421Z,99.50
2022-11-28T03:44:01.866Z,100.00
2022-11-28T03:46:09.060Z,99.91
2022-11-28T03:48:17.524Z,99.91
2022-11-28T03:50:27.907Z,100.00
2022-11-28T03:52:35.823Z,99.42
2022-11-28T03:54:47.095Z,99.48
2022-11-28T03:56:58.312Z,99.83
2022-11-28T03:59:08.927Z,99.96
2022-11-28T04:01:18.335Z,99.25
2022-11-28T04:03:28.187Z,99.38
2022-11-28T04:05:42.766Z,99.49
2022-11-28T04:07:49.764Z,99.50
2022-11-28T04:10:05.413Z,99.48
2022-11-28T04:12:15.867Z,99.41
2022-11-28T04:14:24.529Z,99.07
2022-11-28T04:16:36.034Z,98.59
2022-11-28T04:18:50.143Z,98.88
2022-11-28T04:21:01.241Z,98.62
2022-11-28T04:23:09.213Z,99.28
2022-11-28T04:25:16.295Z,98.98
2022-11-28T04:27:24.747Z,98.76
2022-11-28T04:29:33.932Z,99.23
2022-11-28T04:31:38.558Z,99.18
2022-11-28T04:33:45.590Z,99.15
2022-11-28T04:35:52.670Z,99.55
2022-11-28T04:38:00.726Z,99.11
2022-11-28T04:40:06.707Z,99.22
2022-11-28T04:42:14.796Z,99.04
2022-11-28T04:44:24.117Z,99.31
2022-11-28T04:46:33.477Z,99.24
2022-11-28T04:48:37.672Z,98.94
2022-11-28T04:50:47.345Z,98.66
2022-11-28T04:52:59.958Z,98.56
2022-11-28T04:55:09.798Z,98.21
2022-11-28T04:57:16.733Z,97.83
2022-11-28T04:59:23.137Z,97.87
2022-11-28T05:01:30.233Z,98.12
2022-11-28T05:03:35.290Z,97.72
2022-11-28T05:05:47.805Z,97.70
2022-11-28T05:07:52.655Z,97.79
2022-11-28T05:09:57.952Z,97.76
2022-11-28T05:12:01.644Z,97.16
2022-11-28T05:14:05.272Z,97.15
2022-11-28T05:16:08.940Z,96.70
2022-11-28T05:18:12.377Z,96.85
2022-11-28T05:20:16.868Z,97.15
2022-11-28T05:22:20.288Z,97.14
2022-11-28T05:24:25.758Z,96.94
2022-11-28T05:26:35.377Z,97.02
2022-11-28T05:28:38.754Z,96.71
2022-11-28T05:30:42.240Z,96.34
2022-11-28T05:32:45.563Z,96.11
2022-11-28T05:34:49.451Z,95.83
2022-11-28T05:36:52.839Z,95.86
2022-11-28T05:38:56.931Z,95.90
2022-11-28T05:41:00.905Z,95.94
2022-11-28T05:43:05.568Z,95.79
2022-11-28T05:45:10.206Z,95.99
2022-11-28T05:47:13.650Z,96.28
2022-11-28T05:49:17.288Z,96.39
2022-11-28T05:51:20.811Z,96.06
2022-11-28T05:53:24.403Z,96.25
2022-11-28T05:55:28.134Z,96.00
2022-11-28T05:57:33.255Z,96.24
2022-11-28T05:59:38.207Z,95.81
2022-11-28T06:01:41.718Z,95.74
2022-11-28T06:03:46.077Z,95.28
2022-11-28T06:05:49.498Z,95.50
2022-11-28T06:07:53.307Z,95.69
2022-11-28T06:09:56.633Z,95.55
2022-11-28T06:11:59.947Z,96.04
2022-11-28T06:14:03.999Z,95.86
2022-11-28T06:16:11.060Z,95.80
2022-11-28T06:18:15.022Z,95.74
2022-11-28T06:20:20.575Z,96.20
2022-11-28T06:22:23.994Z,96.27
2022-11-28T06:24:27.723Z,96.22
2022-11-28T06:26:31.374Z,96.26
2022-11-28T06:28:35.543Z,95.58
2022-11-28T06:30:38.904Z,95.66
2022-11-28T06:32:43.630Z,95.54
2022-11-28T06:34:46.966Z,95.82
2022-11-28T06:36:50.707Z,95.45
2022-11-28T06:38:54.219Z,96.16
2022-11-28T06:40:58.756Z,95.57
2022-11-28T06:43:02.169Z,95.72
2022-11-28T06:45:06.483Z,95.53
2022-11-28T06:47:10.064Z,95.48
2022-11-28T06:49:20.722Z,95.32
2022-11-28T06:51:24.597Z,95.77
2022-11-28T06:53:31.454Z,95.46
2022-11-28T06:55:35.198Z,95.62
2022-11-28T06:57:39.255Z,95.39
2022-11-28T06:59:42.853Z,95.38
2022-11-28T07:01:46.676Z,94.94
2022-11-28T07:03:51.534Z,95.00
2022-11-28T07:05:57.026Z,94.70
2022-11-28T07:08:02.145Z,94.79
2022-11-28T07:10:07.522Z,94.84
2022-11-28T07:12:11.045Z,94.79
2022-11-28T07:14:14.404Z,94.98
2022-11-28T07:16:20.438Z,94.82
2022-11-28T07:18:23.811Z,94.88
2022-11-28T07:20:27.276Z,94.80
2022-11-28T07:22:31.992Z,94.62
2022-11-28T07:24:35.545Z,94.67
2022-11-28T07:26:39.068Z,94.96
2022-11-28T07:28:43.730Z,95.16
2022-11-28T07:30:47.089Z,95.22
2022-11-28T07:32:50.884Z,95.39
2022-11-28T07:34:54.387Z,95.34
2022-11-28T07:36:57.805Z,95.48
2022-11-28T07:39:04.659Z,95.95
2022-11-28T07:41:09.768Z,95.28
2022-11-28T07:43:13.348Z,95.48
2022-11-28T07:45:16.862Z,95.29
2022-11-28T07:47:20.304Z,95.58
2022-11-28T07:49:23.897Z,95.69
2022-11-28T07:51:31.496Z,95.88
2022-11-28T07:53:35.007Z,95.81
2022-11-28T07:55:39.957Z,96.08
2022-11-28T07:57:43.690Z,95.92
2022-11-28T07:59:47.146Z,96.37
2022-11-28T08:01:50.724Z,96.18
2022-11-28T08:03:55.183Z,96.33
2022-11-28T08:06:03.074Z,96.52
2022-11-28T08:08:07.193Z,96.54
2022-11-28T08:10:11.016Z,96.59
2022-11-28T08:12:18.096Z,96.33
2022-11-28T08:14:21.411Z,96.65
2022-11-28T08:16:26.519Z,96.37
2022-11-28T08:18:29.935Z,96.44
2022-11-28T08:20:33.489Z,96.12
2022-11-28T08:22:37.002Z,96.36
2022-11-28T08:24:41.137Z,96.36
2022-11-28T08:26:44.757Z,96.67
2022-11-28T08:28:50.649Z,96.54
2022-11-28T08:30:54.641Z,96.57
2022-11-28T08:32:58.312Z,96.19
2022-11-28T08:35:01.681Z,96.17
2022-11-28T08:37:05.220Z,96.09
2022-11-28T08:39:23.572Z,96.47
2022-11-28T08:41:28.214Z,96.18
2022-11-28T08:43:31.629Z,96.15
2022-11-28T08:45:38.008Z,96.43
2022-11-28T08:47:41.699Z,96.38
2022-11-28T08:49:45.471Z,96.42
2022-11-28T08:51:48.984Z,96.30
2022-11-28T08:53:59.080Z,96.18
2022-11-28T08:56:03.611Z,96.36
2022-11-28T08:58:06.933Z,95.86
2022-11-28T09:00:11.568Z,95.80
2022-11-28T09:02:16.314Z,95.95
2022-11-28T09:04:19.664Z,96.05
2022-11-28T09:06:24.948Z,95.80
2022-11-28T09:08:28.342Z,95.99
2022-11-28T09:10:31.710Z,95.87
2022-11-28T09:12:35.014Z,95.42
2022-11-28T09:14:38.856Z,95.51
2022-11-28T09:16:42.803Z,95.54
2022-11-28T09:18:47.819Z,95.69
2022-11-28T09:20:51.149Z,95.66
2022-11-28T09:22:54.467Z,95.90
2022-11-28T09:24:57.728Z,95.44
2022-11-28T09:27:01.178Z,95.79
2022-11-28T09:29:04.597Z,95.30
2022-11-28T09:31:08.876Z,95.17
2022-11-28T09:33:13.383Z,95.14
2022-11-28T09:35:18.651Z,94.84
2022-11-28T09:37:22.106Z,95.11
2022-11-28T09:39:25.432Z,95.28
2022-11-28T09:41:52.403Z,95.18
2022-11-28T09:44:00.193Z,94.94
2022-11-28T09:46:08.671Z,94.96
2022-11-28T09:48:25.747Z,94.97
2022-11-28T09:50:35.254Z,95.06
2022-11-28T09:52:45.072Z,95.00
2022-11-28T09:54:53.480Z,94.85
2022-11-28T09:56:58.134Z,94.76
2022-11-28T09:59:04.098Z,94.78
2022-11-28T10:01:16.716Z,95.12
2022-11-28T10:03:37.215Z,94.85
2022-11-28T10:05:49.585Z,94.66
2022-11-28T10:08:06.964Z,94.87
2022-11-28T10:10:20.371Z,94.96
2022-11-28T10:12:41.353Z,94.93
2022-11-28T10:15:20.035Z,94.64
2022-11-28T10:17:35.198Z,95.63
2022-11-28T10:19:54.300Z,94.57
2022-11-28T10:22:03.625Z,94.71
2022-11-28T10:24:14.865Z,93.47
2022-11-28T10:26:30.071Z,93.85
2022-11-28T10:28:37.106Z,93.29
2022-11-28T10:30:43.945Z,93.95
2022-11-28T10:32:57.305Z,93.67
2022-11-28T10:35:05.459Z,93.91
2022-11-28T10:37:16.975Z,94.31
2022-11-28T10:39:20.361Z,94.56
2022-11-28T10:41:28.728Z,94.65
2022-11-28T10:43:41.221Z,94.58
2022-11-28T10:45:53.504Z,94.66
2022-11-28T10:48:38.581Z,94.45
2022-11-28T10:50:48.314Z,94.45
2022-11-28T10:53:01.348Z,94.30
2022-11-28T10:55:28.981Z,94.44
2022-11-28T10:57:41.211Z,94.25
2022-11-28T10:59:57.597Z,94.71
2022-11-28T11:02:04.968Z,94.85
2022-11-28T11:04:13.969Z,94.93
2022-11-28T11:06:17.539Z,95.06
2022-11-28T11:08:24.294Z,94.98
2022-11-28T11:10:31.691Z,94.83
2022-11-28T11:12:35.673Z,94.64
2022-11-28T11:14:40.842Z,94.93
2022-11-28T11:16:52.383Z,94.73
2022-11-28T11:18:56.507Z,94.52
2022-11-28T11:21:15.720Z,94.69
2022-11-28T11:23:20.987Z,95.10
2022-11-28T11:25:27.094Z,94.97
2022-11-28T11:27:31.843Z,95.20
2022-11-28T11:29:36.721Z,95.37
2022-11-28T11:31:44.823Z,95.56
2022-11-28T11:33:49.844Z,95.75
2022-11-28T11:35:53.585Z,96.35
2022-11-28T11:38:16.800Z,96.63
2022-11-28T11:40:26.908Z,97.10
2022-11-28T11:42:32.183Z,97.24
2022-11-28T11:44:35.861Z,97.66
2022-11-28T11:46:52.044Z,97.79
2022-11-28T11:48:55.686Z,98.45
2022-11-28T11:50:59.381Z,98.33
2022-11-28T11:53:08.080Z,98.66
2022-11-28T11:55:15.502Z,98.78
2022-11-28T11:57:32.989Z,99.28
2022-11-28T11:59:42.683Z,99.72
2022-11-28T12:01:50.763Z,99.78
2022-11-28T12:03:57.988Z,100.00
2022-11-28T12:06:15.453Z,100.00
2022-11-28T12:08:31.843Z,100.00
2022-11-28T12:10:41.144Z,100.00
2022-11-28T12:12:46.009Z,100.00
2022-11-28T12:14:51.147Z,100.00
2022-11-28T12:17:25.573Z,100.00
2022-11-28T12:19:36.935Z,100.00
2022-11-28T12:21:51.743Z,100.00
2022-11-28T12:24:11.128Z,100.00
2022-11-28T12:26:23.163Z,100.00
2022-11-28T12:28:43.405Z,100.00
2022-11-28T12:30:59.674Z,100.00
2022-11-28T12:33:20.556Z,100.00
2022-11-28T12:35:33.174Z,100.00
2022-11-28T12:40:20.882Z,100.00
2022-11-28T12:42:35.891Z,100.00
2022-11-28T12:45:04.765Z,100.00
2022-11-28T12:47:15.821Z,100.00
2022-11-28T12:49:25.244Z,100.00
2022-11-28T12:51:40.970Z,100.00
2022-11-28T12:54:02.729Z,100.00
2022-11-28T12:56:30.807Z,100.00
2022-11-28T12:58:41.258Z,100.00
2022-11-28T13:00:54.811Z,100.00
2022-11-28T13:03:11.144Z,100.00
2022-11-28T13:05:32.395Z,100.00
2022-11-28T13:07:44.322Z,100.00
2022-11-28T13:10:01.632Z,100.00
2022-11-28T13:12:20.433Z,100.00
2022-11-28T13:14:34.625Z,100.00
2022-11-28T13:16:46.652Z,100.00
2022-11-28T13:18:55.528Z,100.00
2022-11-28T13:21:05.103Z,100.00
2022-11-28T13:23:15.807Z,100.00
2022-11-28T13:25:29.808Z,100.00
2022-11-28T13:27:40.465Z,100.00
2022-11-28T13:29:54.276Z,100.00
2022-11-28T13:32:06.231Z,100.00
2022-11-28T13:34:16.248Z,100.00
2022-11-28T13:39:11.623Z,100.00
2022-11-28T13:41:43.860Z,100.00
2022-11-28T13:43:53.344Z,100.00
2022-11-28T13:45:57.239Z,100.00
2022-11-28T13:51:21.744Z,100.00
2022-11-28T13:53:27.671Z,100.00
2022-11-28T13:55:40.502Z,100.00
2022-11-28T13:57:43.874Z,100.00
2022-11-28T13:59:51.711Z,100.00
2022-11-28T14:02:00.597Z,100.00
2022-11-28T14:04:09.754Z,100.00
2022-11-28T14:06:17.717Z,100.00
2022-11-28T14:08:33.230Z,100.00
2022-11-28T14:10:52.537Z,100.00
2022-11-28T14:13:22.806Z,100.00
2022-11-28T14:15:31.641Z,100.00
2022-11-28T14:18:00.541Z,100.00
2022-11-28T14:20:17.322Z,100.00
2022-11-28T14:22:35.315Z,100.00
2022-11-28T14:24:55.216Z,100.00
2022-11-28T14:27:01.894Z,100.00
2022-11-28T14:29:19.132Z,100.00
2022-11-28T14:31:31.614Z,100.00
2022-11-28T14:33:39.148Z,100.00
2022-11-28T14:36:07.572Z,100.00
2022-11-28T14:38:47.276Z,100.00
2022-11-28T14:41:02.969Z,100.00
2022-11-28T14:43:28.837Z,100.00
2022-11-28T14:45:45.554Z,100.00
2022-11-28T14:48:15.405Z,100.00
2022-11-28T14:50:46.956Z,100.00
2022-11-28T14:53:31.064Z,100.00
2022-11-28T14:55:37.456Z,100.00
2022-11-28T14:57:52.611Z,100.00
2022-11-28T14:59:59.565Z,100.00
2022-11-28T15:02:17.775Z,100.00
2022-11-28T15:04:49.764Z,100.00
2022-11-28T15:06:56.676Z,100.00
2022-11-28T15:09:08.082Z,100.00
2022-11-28T15:11:45.326Z,100.00
2022-11-28T15:14:06.040Z,100.00
2022-11-28T15:16:13.917Z,100.00
2022-11-28T15:18:18.753Z,100.00
2022-11-28T15:20:27.763Z,100.00
2022-11-28T15:22:33.999Z,100.00
2022-11-28T15:24:39.233Z,100.00
2022-11-28T15:26:44.847Z,100.00
2022-11-28T15:28:49.555Z,100.00
2022-11-28T15:30:54.422Z,100.00
2022-11-28T15:33:03.371Z,100.00
2022-11-28T15:35:12.337Z,100.00
2022-11-28T15:37:18.328Z,100.00
2022-11-28T15:39:29.273Z,100.00
2022-11-28T15:41:32.789Z,100.00
2022-11-28T15:43:39.760Z,100.00
2022-11-28T15:45:43.407Z,100.00
2022-11-28T15:47:49.175Z,100.00
2022-11-28T15:50:05.456Z,100.00
2022-11-28T15:52:18.412Z,100.00
2022-11-28T15:54:43.852Z,100.00
2022-11-28T15:56:57.370Z,100.00
2022-11-28T15:59:02.217Z,100.00
2022-11-28T16:01:10.606Z,100.00
2022-11-28T16:03:17.064Z,100.00
2022-11-28T16:05:22.701Z,100.00
2022-11-28T16:07:26.245Z,100.00
2022-11-28T16:09:33.933Z,100.00
2022-11-28T16:11:37.733Z,100.00
2022-11-28T16:13:43.150Z,100.00
2022-11-28T16:15:52.442Z,100.00
2022-11-28T16:17:56.885Z,100.00
2022-11-28T16:20:01.781Z,100.00
2022-11-28T16:22:08.972Z,100.00
2022-11-28T16:24:18.744Z,100.00
2022-11-28T16:26:29.850Z,100.00
2022-11-28T16:28:35.512Z,100.00
2022-11-28T16:30:45.508Z,100.00
2022-11-28T16:32:51.464Z,100.00
2022-11-28T16:34:57.190Z,100.00
2022-11-28T16:37:00.556Z,100.00
2022-11-28T16:39:13.109Z,100.00
2022-11-28T16:41:18.652Z,100.00
2022-11-28T16:43:25.767Z,100.00
2022-11-28T16:45:32.479Z,100.00
2022-11-28T16:47:37.075Z,100.00
2022-11-28T16:49:43.970Z,100.00
2022-11-28T16:51:47.726Z,100.00
2022-11-28T16:53:53.236Z,100.00
2022-11-28T16:55:56.640Z,100.00
2022-11-28T16:58:07.017Z,100.00
2022-11-28T17:00:11.294Z,100.00
2022-11-28T17:02:17.243Z,100.00
2022-11-28T17:04:22.495Z,100.00
2022-11-28T17:06:33.887Z,100.00
2022-11-28T17:08:37.239Z,100.00
2022-11-28T17:10:40.737Z,100.00
2022-11-28T17:12:44.259Z,100.00
2022-11-28T17:14:47.656Z,100.00
2022-11-28T17:16:51.688Z,100.00
2022-11-28T17:18:55.140Z,100.00
2022-11-28T17:20:59.872Z,100.00
2022-11-28T17:23:05.656Z,100.00
2022-11-28T17:25:15.056Z,100.00
2022-11-28T17:27:18.679Z,100.00
2022-11-28T17:29:22.699Z,100.00
2022-11-28T17:31:26.265Z,100.00
2022-11-28T17:33:29.692Z,100.00
2022-11-28T17:35:40.130Z,100.00
2022-11-28T17:37:43.557Z,100.00
2022-11-28T17:40:02.154Z,100.00
2022-11-28T17:42:06.502Z,100.00
2022-11-28T17:44:16.584Z,100.00
2022-11-28T17:46:21.443Z,100.00
2022-11-28T17:48:24.998Z,100.00
2022-11-28T17:50:29.495Z,100.00
2022-11-28T17:52:33.934Z,100.00
2022-11-28T17:54:37.325Z,100.00
2022-11-28T17:56:42.002Z,100.00
2022-11-28T17:58:46.501Z,100.00
2022-11-28T18:00:50.160Z,100.00
2022-11-28T18:02:53.619Z,100.00
2022-11-28T18:04:56.943Z,100.00
2022-11-28T18:07:00.329Z,100.00
2022-11-28T18:09:11.421Z,100.00
2022-11-28T18:11:17.134Z,100.00
2022-11-28T18:13:21.865Z,100.00
2022-11-28T18:15:25.262Z,100.00
2022-11-28T18:17:29.200Z,100.00
2022-11-28T18:19:32.910Z,100.00
2022-11-28T18:21:36.470Z,100.00
2022-11-28T18:23:40.781Z,100.00
2022-11-28T18:25:46.204Z,100.00
2022-11-28T18:27:49.702Z,100.00
2022-11-28T18:29:55.034Z,100.00
2022-11-28T18:32:00.397Z,100.00
2022-11-28T18:34:06.530Z,100.00
2022-11-28T18:36:12.224Z,100.00
2022-11-28T18:38:15.582Z,100.00
2022-11-28T18:40:19.260Z,100.00
2022-11-28T18:42:22.640Z,100.00
2022-11-28T18:44:26.193Z,100.00
2022-11-28T18:46:32.472Z,100.00
2022-11-28T18:48:38.682Z,100.00
2022-11-28T18:50:42.080Z,100.00
2022-11-28T18:52:48.302Z,100.00
2022-11-28T18:54:52.658Z,100.00
2022-11-28T18:56:56.136Z,100.00
2022-11-28T18:59:00.294Z,100.00
2022-11-28T19:01:10.142Z,100.00
2022-11-28T19:03:15.542Z,100.00
2022-11-28T19:05:19.038Z,100.00
2022-11-28T19:07:23.371Z,100.00
2022-11-28T19:09:26.665Z,100.00
2022-11-28T19:11:30.440Z,100.00
2022-11-28T19:13:33.908Z,100.00
2022-11-28T19:15:40.200Z,100.00
2022-11-28T19:17:43.557Z,100.00
2022-11-28T19:19:48.282Z,100.00
2022-11-28T19:21:51.841Z,100.00
2022-11-28T19:23:55.869Z,100.00
2022-11-28T19:26:02.184Z,100.00
2022-11-28T19:28:06.623Z,100.00
2022-11-28T19:30:10.528Z,100.00
2022-11-28T19:32:14.085Z,100.00
2022-11-28T19:34:19.528Z,100.00
2022-11-28T19:36:24.394Z,100.00
2022-11-28T19:38:27.697Z,100.00
2022-11-28T19:40:31.164Z,100.00
2022-11-28T19:42:35.302Z,100.00
2022-11-28T19:44:38.663Z,100.00
2022-11-28T19:46:42.678Z,100.00
2022-11-28T19:48:46.199Z,100.00
2022-11-28T19:50:50.360Z,100.00
2022-11-28T19:52:55.296Z,100.00
2022-11-28T19:54:58.981Z,100.00
2022-11-28T19:57:02.534Z,100.00
2022-11-28T19:59:06.053Z,100.00
2022-11-28T20:01:13.351Z,100.00
2022-11-28T20:03:17.408Z,100.00
2022-11-28T20:05:20.870Z,100.00
2022-11-28T20:07:24.594Z,100.00
2022-11-28T20:09:29.365Z,100.00
2022-11-28T20:11:34.825Z,100.00
2022-11-28T20:13:38.526Z,100.00
2022-11-28T20:15:42.112Z,100.00
2022-11-28T20:17:45.820Z,100.00
2022-11-28T20:19:49.144Z,100.00
2022-11-28T20:21:52.474Z,100.00
2022-11-28T20:23:59.551Z,100.00
2022-11-28T20:26:06.079Z,100.00
2022-11-28T20:28:09.879Z,100.00
2022-11-28T20:30:15.326Z,100.00
2022-11-28T20:32:19.133Z,100.00
2022-11-28T20:34:23.751Z,100.00
2022-11-28T20:36:28.797Z,100.00
2022-11-28T20:38:32.205Z,100.00
2022-11-28T20:40:35.670Z,100.00
2022-11-28T20:42:40.379Z,100.00
2022-11-28T20:44:43.737Z,100.00
2022-11-28T20:46:50.300Z,100.00
2022-11-28T20:48:54.231Z,100.00
2022-11-28T20:50:57.627Z,100.00
2022-11-28T20:53:01.047Z,100.00
2022-11-28T20:55:04.502Z,100.00
2022-11-28T20:57:21.251Z,100.00
2022-11-28T20:59:26.705Z,100.00
2022-11-28T21:01:33.146Z,100.00
2022-11-28T21:03:37.018Z,100.00
2022-11-28T21:05:40.455Z,100.00
2022-11-28T21:07:43.795Z,100.00
2022-11-28T21:09:47.276Z,100.00
2022-11-28T21:11:57.389Z,100.00
2022-11-28T21:14:02.523Z,100.00
2022-11-28T21:16:08.955Z,100.00
2022-11-28T21:18:12.722Z,100.00
2022-11-28T21:20:16.079Z,100.00
2022-11-28T21:22:19.426Z,100.00
2022-11-28T21:24:22.734Z,100.00
2022-11-28T21:26:30.294Z,100.00
2022-11-28T21:28:35.311Z,100.00
2022-11-28T21:30:41.612Z,100.00
2022-11-28T21:32:47.463Z,100.00
2022-11-28T21:34:50.798Z,100.00
2022-11-28T21:36:55.115Z,100.00
2022-11-28T21:39:00.223Z,100.00
2022-11-28T21:41:05.036Z,100.00
2022-11-28T21:43:08.779Z,100.00
2022-11-28T21:45:12.421Z,100.00
2022-11-28T21:47:16.155Z,100.00
2022-11-28T21:49:20.934Z,100.00
2022-11-28T21:51:28.334Z,100.00
2022-11-28T21:53:34.094Z,100.00
2022-11-28T21:55:37.895Z,100.00
2022-11-28T21:57:42.835Z,100.00
2022-11-28T21:59:46.499Z,100.00
2022-11-28T22:01:50.200Z,100.00
2022-11-28T22:04:01.944Z,100.00
2022-11-28T22:06:09.999Z,100.00
2022-11-28T22:08:14.048Z,100.00
2022-11-28T22:10:20.344Z,100.00
2022-11-28T22:12:23.741Z,100.00
2022-11-28T22:14:44.709Z,100.00
2022-11-28T22:16:48.134Z,100.00
2022-11-28T22:18:53.034Z,100.00
2022-11-28T22:21:02.120Z,100.00
2022-11-28T22:23:06.941Z,100.00
2022-11-28T22:25:10.532Z,100.00
2022-11-28T22:27:13.950Z,100.00
2022-11-28T22:29:17.333Z,100.00
2022-11-28T22:31:20.684Z,100.00
2022-11-28T22:33:24.072Z,100.00
2022-11-28T22:35:27.542Z,100.00
2022-11-28T22:37:30.872Z,100.00
2022-11-28T22:39:35.664Z,100.00
2022-11-28T22:41:39.361Z,100.00
2022-11-28T22:43:43.442Z,100.00
2022-11-28T22:45:46.806Z,100.00
2022-11-28T22:47:50.290Z,100.00
2022-11-28T22:49:53.648Z,100.00
2022-11-28T22:51:56.970Z,100.00
2022-11-28T22:54:02.197Z,100.00
2022-11-28T22:56:09.836Z,100.00
2022-11-28T22:58:13.407Z,100.00
2022-11-28T23:00:17.688Z,100.00
2022-11-28T23:02:21.328Z,100.00
2022-11-28T23:04:24.801Z,100.00
2022-11-28T23:06:30.282Z,100.00
2022-11-28T23:08:34.121Z,100.00
2022-11-28T23:10:38.612Z,100.00
2022-11-28T23:12:43.679Z,100.00
2022-11-28T23:14:47.262Z,100.00
2022-11-28T23:16:50.776Z,100.00
2022-11-28T23:18:56.165Z,100.00
2022-11-28T23:20:59.535Z,100.00
2022-11-28T23:23:02.944Z,100.00
2022-11-28T23:25:07.781Z,100.00
2022-11-28T23:27:11.154Z,100.00
2022-11-28T23:29:17.575Z,100.00
2022-11-28T23:31:23.191Z,100.00
2022-11-28T23:33:26.590Z,100.00
2022-11-28T23:35:30.072Z,100.00
2022-11-28T23:37:37.497Z,100.00
2022-11-28T23:39:40.938Z,100.00
2022-11-28T23:41:45.676Z,100.00
2022-11-28T23:43:49.149Z,100.00
2022-11-28T23:45:53.861Z,100.00
2022-11-28T23:47:58.317Z,100.00
2022-11-28T23:50:01.896Z,100.00
2022-11-28T23:52:05.433Z,100.00
2022-11-28T23:54:09.566Z,100.00
2022-11-28T23:56:15.534Z,100.00
2022-11-28T23:58:19.556Z,100.00
